createdAt,value
2018-08-28T00:02:10.937Z,18.32
2018-08-28T00:04:40.106Z,18.37
2018-08-28T00:07:09.447Z,18.24
2018-08-28T00:09:38.916Z,18.27
2018-08-28T00:12:08.521Z,18.31
2018-08-28T00:14:37.834Z,18.25
2018-08-28T00:17:07.069Z,18.20
2018-08-28T00:19:36.199Z,18.13
2018-08-28T00:22:05.390Z,18.09
2018-08-28T00:24:34.525Z,18.12
2018-08-28T00:27:03.657Z,18.07
2018-08-28T00:29:33.401Z,18.03
2018-08-28T00:32:02.567Z,17.99
2018-08-28T00:34:31.829Z,17.98
2018-08-28T00:37:00.929Z,17.93
2018-08-28T00:39:30.378Z,17.84
2018-08-28T00:41:59.546Z,17.76
2018-08-28T00:44:28.667Z,17.63
2018-08-28T00:46:57.810Z,17.50
2018-08-28T00:49:26.931Z,17.37
2018-08-28T00:51:56.094Z,17.27
2018-08-28T00:54:25.245Z,17.20
2018-08-28T00:56:54.341Z,17.10
2018-08-28T00:59:23.465Z,17.01
2018-08-28T01:01:52.609Z,16.95
2018-08-28T01:04:22.202Z,16.81
2018-08-28T01:06:51.510Z,16.64
2018-08-28T01:09:21.173Z,16.53
2018-08-28T01:11:50.610Z,16.33
2018-08-28T01:14:19.382Z,16.21
2018-08-28T01:16:48.505Z,16.13
2018-08-28T01:19:17.648Z,16.00
2018-08-28T01:21:46.778Z,15.94
2018-08-28T01:24:15.909Z,15.82
2018-08-28T01:26:45.046Z,15.76
2018-08-28T01:29:15.028Z,15.73
2018-08-28T01:31:44.140Z,15.59
2018-08-28T01:34:13.267Z,15.69
2018-08-28T01:36:42.749Z,15.78
2018-08-28T01:39:11.913Z,15.83
2018-08-28T01:41:41.027Z,15.77
2018-08-28T01:44:10.181Z,15.58
2018-08-28T01:46:39.278Z,15.58
2018-08-28T01:49:08.421Z,15.38
2018-08-28T01:51:37.538Z,15.62
2018-08-28T01:54:06.666Z,15.65
2018-08-28T01:56:35.842Z,15.48
2018-08-28T01:59:05.018Z,15.55
2018-08-28T02:01:34.131Z,15.46
2018-08-28T02:04:03.421Z,15.25
2018-08-28T02:06:33.086Z,15.28
2018-08-28T02:09:02.201Z,15.23
2018-08-28T02:11:31.341Z,15.22
2018-08-28T02:14:00.447Z,15.11
2018-08-28T02:16:30.242Z,14.94
2018-08-28T02:18:59.893Z,14.74
2018-08-28T02:21:29.063Z,14.65
2018-08-28T02:23:58.333Z,14.56
2018-08-28T02:26:27.465Z,14.47
2018-08-28T02:28:56.573Z,14.46
2018-08-28T02:31:25.719Z,14.38
2018-08-28T02:33:54.885Z,14.32
2018-08-28T02:36:24.699Z,14.21
2018-08-28T02:38:54.658Z,14.07
2018-08-28T02:41:23.783Z,14.14
2018-08-28T02:43:52.906Z,14.27
2018-08-28T02:46:22.073Z,14.32
2018-08-28T02:48:51.235Z,14.24
2018-08-28T02:51:20.361Z,14.07
2018-08-28T02:53:49.506Z,13.97
2018-08-28T02:56:18.649Z,13.95
2018-08-28T02:58:48.164Z,13.88
2018-08-28T03:01:17.325Z,13.63
2018-08-28T03:03:46.489Z,13.72
2018-08-28T03:06:16.141Z,13.81
2018-08-28T03:08:45.258Z,13.85
2018-08-28T03:11:14.493Z,13.86
2018-08-28T03:13:44.518Z,13.98
2018-08-28T03:16:13.931Z,13.96
2018-08-28T03:18:42.930Z,13.95
2018-08-28T03:21:12.083Z,13.91
2018-08-28T03:23:41.465Z,13.88
2018-08-28T03:26:10.966Z,13.74
2018-08-28T03:28:40.252Z,13.70
2018-08-28T03:31:09.442Z,13.72
2018-08-28T03:33:38.742Z,13.65
2018-08-28T03:36:07.853Z,13.68
2018-08-28T03:38:37.292Z,13.64
2018-08-28T03:41:06.430Z,13.63
2018-08-28T03:43:36.007Z,13.56
2018-08-28T03:46:05.157Z,13.52
2018-08-28T03:48:34.259Z,13.68
2018-08-28T03:51:03.394Z,13.77
2018-08-28T03:53:33.067Z,13.83
2018-08-28T03:56:02.175Z,13.91
2018-08-28T03:58:31.374Z,13.95
2018-08-28T04:01:00.515Z,14.03
2018-08-28T04:03:29.689Z,14.08
2018-08-28T04:05:58.805Z,14.09
2018-08-28T04:08:28.613Z,14.06
2018-08-28T04:10:57.737Z,13.99
2018-08-28T04:13:26.869Z,13.90
2018-08-28T04:15:55.996Z,13.82
2018-08-28T04:18:25.220Z,13.75
2018-08-28T04:20:54.843Z,13.62
2018-08-28T04:23:24.114Z,13.45
2018-08-28T04:25:54.415Z,13.39
2018-08-28T04:28:26.172Z,13.34
2018-08-28T04:30:55.724Z,13.27
2018-08-28T04:33:24.816Z,13.17
2018-08-28T04:35:53.937Z,13.11
2018-08-28T04:38:23.312Z,13.09
2018-08-28T04:40:52.423Z,13.10
2018-08-28T04:43:21.514Z,13.10
2018-08-28T04:45:50.694Z,13.06
2018-08-28T04:48:19.846Z,13.09
2018-08-28T04:50:48.983Z,13.14
2018-08-28T04:53:18.170Z,13.16
2018-08-28T04:55:47.982Z,13.36
2018-08-28T04:58:17.131Z,13.40
2018-08-28T05:00:46.351Z,13.32
2018-08-28T05:03:15.755Z,13.39
2018-08-28T05:05:44.922Z,13.35
2018-08-28T05:08:14.333Z,13.37
2018-08-28T05:10:43.462Z,13.39
2018-08-28T05:13:12.563Z,13.44
2018-08-28T05:15:41.942Z,13.53
2018-08-28T05:18:11.070Z,13.58
2018-08-28T05:20:40.330Z,13.73
2018-08-28T05:23:09.722Z,13.84
2018-08-28T05:25:39.602Z,13.95
2018-08-28T05:28:08.735Z,14.06
2018-08-28T05:30:37.915Z,14.21
2018-08-28T05:33:07.219Z,14.47
2018-08-28T05:35:36.346Z,14.53
2018-08-28T05:38:05.497Z,14.64
2018-08-28T05:40:34.606Z,14.82
2018-08-28T05:43:03.794Z,15.01
2018-08-28T05:45:32.915Z,15.41
2018-08-28T05:48:02.090Z,15.88
2018-08-28T05:50:31.202Z,16.33
2018-08-28T05:53:00.346Z,16.68
2018-08-28T05:55:29.573Z,17.17
2018-08-28T05:57:58.694Z,17.85
2018-08-28T06:00:27.822Z,17.97
2018-08-28T06:02:56.953Z,18.59
2018-08-28T06:05:26.026Z,19.30
2018-08-28T06:07:55.147Z,19.54
2018-08-28T06:10:24.954Z,20.06
2018-08-28T06:12:54.074Z,20.52
2018-08-28T06:15:23.183Z,20.73
2018-08-28T06:17:52.314Z,20.94
2018-08-28T06:20:21.567Z,20.34
2018-08-28T06:22:52.519Z,20.43
2018-08-28T06:25:21.695Z,20.59
2018-08-28T06:27:50.814Z,20.83
2018-08-28T06:30:19.969Z,20.69
2018-08-28T06:32:49.410Z,21.06
2018-08-28T06:35:18.651Z,21.20
2018-08-28T06:37:47.795Z,21.02
2018-08-28T06:40:16.936Z,21.61
2018-08-28T06:42:46.430Z,21.78
2018-08-28T06:45:18.380Z,21.74
2018-08-28T06:47:47.515Z,22.97
2018-08-28T06:50:16.631Z,23.89
2018-08-28T06:52:45.746Z,24.52
2018-08-28T06:55:15.472Z,25.16
2018-08-28T06:57:44.595Z,25.93
2018-08-28T07:00:13.706Z,26.19
2018-08-28T07:02:42.853Z,26.82
2018-08-28T07:05:11.982Z,26.90
2018-08-28T07:07:41.151Z,27.17
2018-08-28T07:10:10.302Z,27.04
2018-08-28T07:12:39.953Z,26.84
2018-08-28T07:15:09.519Z,26.49
2018-08-28T07:17:38.655Z,26.75
2018-08-28T07:20:07.970Z,27.08
2018-08-28T07:22:37.246Z,26.76
2018-08-28T07:25:06.859Z,25.88
2018-08-28T07:27:36.006Z,25.71
2018-08-28T07:30:06.089Z,25.94
2018-08-28T07:32:35.830Z,27.06
2018-08-28T07:35:05.702Z,27.11
2018-08-28T07:37:34.951Z,26.71
2018-08-28T07:40:04.752Z,28.03
2018-08-28T07:42:34.729Z,28.81
2018-08-28T07:45:04.533Z,28.43
2018-08-28T07:47:33.650Z,28.76
2018-08-28T07:50:02.972Z,29.47
2018-08-28T07:52:32.103Z,28.15
2018-08-28T07:55:01.223Z,28.05
2018-08-28T07:57:30.839Z,28.60
2018-08-28T07:59:59.962Z,29.19
2018-08-28T08:02:29.358Z,29.89
2018-08-28T08:04:58.930Z,29.62
2018-08-28T08:07:28.042Z,29.71
2018-08-28T08:09:57.150Z,30.22
2018-08-28T08:12:26.275Z,29.81
2018-08-28T08:14:55.394Z,30.12
2018-08-28T08:17:25.195Z,30.87
2018-08-28T08:19:54.333Z,31.57
2018-08-28T08:22:23.675Z,31.88
2018-08-28T08:24:52.938Z,31.31
2018-08-28T08:27:22.249Z,32.19
2018-08-28T08:29:50.999Z,32.32
2018-08-28T08:32:20.097Z,31.85
2018-08-28T08:34:49.202Z,31.47
2018-08-28T08:37:18.306Z,31.66
2018-08-28T08:39:47.450Z,31.48
2018-08-28T08:42:16.957Z,31.40
2018-08-28T08:44:46.200Z,31.12
2018-08-28T08:47:15.355Z,32.24
2018-08-28T08:49:44.475Z,32.79
2018-08-28T08:52:14.278Z,32.07
2018-08-28T08:54:43.738Z,28.43
2018-08-28T08:57:13.214Z,30.89
2018-08-28T08:59:42.378Z,32.31
2018-08-28T09:02:11.551Z,32.65
2018-08-28T09:04:41.290Z,31.63
2018-08-28T09:07:10.447Z,33.40
2018-08-28T09:09:39.615Z,31.76
2018-08-28T09:12:08.747Z,30.42
2018-08-28T09:14:37.835Z,32.14
2018-08-28T09:17:07.917Z,34.26
2018-08-28T09:19:37.503Z,34.93
2018-08-28T09:22:06.654Z,32.53
2018-08-28T09:24:35.497Z,34.86
2018-08-28T09:27:04.611Z,34.60
2018-08-28T09:29:34.201Z,35.35
2018-08-28T09:32:03.418Z,36.24
2018-08-28T09:34:32.523Z,36.57
2018-08-28T09:37:01.643Z,36.79
2018-08-28T09:39:30.797Z,36.56
2018-08-28T09:41:59.967Z,37.45
2018-08-28T09:44:29.257Z,36.94
2018-08-28T09:46:58.406Z,35.92
2018-08-28T09:49:27.515Z,34.26
2018-08-28T09:51:56.846Z,36.15
2018-08-28T09:54:26.017Z,34.91
2018-08-28T09:56:55.148Z,34.38
2018-08-28T09:59:24.306Z,35.04
2018-08-28T10:01:53.429Z,37.61
2018-08-28T10:04:22.691Z,37.97
2018-08-28T10:06:51.822Z,38.53
2018-08-28T10:09:20.935Z,39.67
2018-08-28T10:11:50.106Z,39.49
2018-08-28T10:14:19.261Z,36.09
2018-08-28T10:16:48.441Z,38.39
2018-08-28T10:19:17.567Z,38.20
2018-08-28T10:21:47.439Z,35.12
2018-08-28T10:24:16.807Z,37.58
2018-08-28T10:26:46.095Z,39.01
2018-08-28T10:29:14.984Z,40.19
2018-08-28T10:31:44.115Z,39.38
2018-08-28T10:34:13.218Z,36.58
2018-08-28T10:36:42.737Z,34.64
2018-08-28T10:39:11.880Z,32.53
2018-08-28T10:41:41.058Z,35.01
2018-08-28T10:44:10.851Z,35.13
2018-08-28T10:46:40.033Z,36.07
2018-08-28T10:49:09.088Z,38.56
2018-08-28T10:51:38.205Z,38.97
2018-08-28T10:54:07.619Z,39.40
2018-08-28T10:56:36.758Z,39.37
2018-08-28T10:59:06.842Z,37.84
2018-08-28T11:01:36.014Z,38.73
2018-08-28T11:04:05.130Z,40.25
2018-08-28T11:06:34.262Z,41.91
2018-08-28T11:09:03.618Z,44.04
2018-08-28T11:11:32.735Z,41.91
2018-08-28T11:14:01.926Z,39.83
2018-08-28T11:16:31.146Z,38.93
2018-08-28T11:19:00.778Z,38.75
2018-08-28T11:21:29.885Z,39.93
2018-08-28T11:23:59.041Z,41.08
2018-08-28T11:26:28.310Z,39.89
2018-08-28T11:28:57.418Z,38.63
2018-08-28T11:31:26.617Z,37.47
2018-08-28T11:33:55.922Z,37.91
2018-08-28T11:36:25.070Z,35.52
2018-08-28T11:38:54.198Z,35.05
2018-08-28T11:41:23.305Z,32.97
2018-08-28T11:43:52.465Z,37.51
2018-08-28T11:46:21.597Z,39.38
2018-08-28T11:48:50.714Z,40.07
2018-08-28T11:51:19.839Z,39.74
2018-08-28T11:53:48.952Z,41.61
2018-08-28T11:56:18.067Z,41.86
2018-08-28T11:58:47.190Z,40.43
2018-08-28T12:01:16.306Z,38.10
2018-08-28T12:03:45.438Z,38.32
2018-08-28T12:06:14.618Z,40.63
2018-08-28T12:08:44.322Z,39.06
2018-08-28T12:11:13.458Z,39.41
2018-08-28T12:13:42.650Z,38.79
2018-08-28T12:16:11.818Z,39.55
2018-08-28T12:18:40.958Z,38.49
2018-08-28T12:21:10.278Z,34.86
2018-08-28T12:23:39.441Z,33.56
2018-08-28T12:26:08.566Z,34.03
2018-08-28T12:28:37.342Z,35.14
2018-08-28T12:31:06.455Z,36.35
2018-08-28T12:33:35.566Z,37.49
2018-08-28T12:36:04.879Z,37.87
2018-08-28T12:38:34.182Z,35.28
2018-08-28T12:41:03.298Z,35.17
2018-08-28T12:43:32.468Z,33.72
2018-08-28T12:46:01.947Z,30.58
2018-08-28T12:48:31.298Z,30.28
2018-08-28T12:51:00.449Z,29.96
2018-08-28T12:53:29.566Z,29.40
2018-08-28T12:55:58.778Z,28.82
2018-08-28T12:58:27.882Z,28.74
2018-08-28T13:00:57.084Z,28.90
2018-08-28T13:03:26.303Z,28.82
2018-08-28T13:05:55.465Z,29.91
2018-08-28T13:08:25.014Z,31.47
2018-08-28T13:10:54.189Z,30.89
2018-08-28T13:13:23.330Z,30.54
2018-08-28T13:15:52.444Z,31.35
2018-08-28T13:18:22.261Z,33.89
2018-08-28T13:20:51.402Z,34.51
2018-08-28T13:23:21.282Z,35.26
2018-08-28T13:25:50.501Z,36.63
2018-08-28T13:28:20.186Z,37.96
2018-08-28T13:30:49.392Z,37.38
2018-08-28T13:33:18.505Z,37.24
2018-08-28T13:35:47.620Z,33.70
2018-08-28T13:38:16.779Z,36.44
2018-08-28T13:40:46.122Z,38.06
2018-08-28T13:43:15.563Z,38.41
2018-08-28T13:45:44.742Z,38.04
2018-08-28T13:48:14.658Z,38.26
2018-08-28T13:50:43.781Z,34.78
2018-08-28T13:53:13.002Z,34.60
2018-08-28T13:55:42.098Z,33.27
2018-08-28T13:58:11.226Z,35.64
2018-08-28T14:00:40.546Z,32.99
2018-08-28T14:03:09.670Z,34.11
2018-08-28T14:05:39.098Z,35.80
2018-08-28T14:08:08.275Z,35.36
2018-08-28T14:10:37.415Z,34.83
2018-08-28T14:13:07.211Z,36.34
2018-08-28T14:15:36.407Z,34.93
2018-08-28T14:18:06.206Z,32.32
2018-08-28T14:20:35.434Z,32.80
2018-08-28T14:23:04.591Z,35.41
2018-08-28T14:25:34.703Z,35.47
2018-08-28T14:28:03.833Z,37.38
2018-08-28T14:30:33.286Z,36.90
2018-08-28T14:33:02.558Z,36.40
2018-08-28T14:35:31.851Z,36.90
2018-08-28T14:38:01.515Z,34.85
2018-08-28T14:40:30.929Z,36.14
2018-08-28T14:43:00.504Z,36.21
2018-08-28T14:45:29.742Z,34.05
2018-08-28T14:47:58.985Z,35.18
2018-08-28T14:50:28.672Z,35.82
2018-08-28T14:52:58.290Z,35.34
2018-08-28T14:55:27.551Z,34.02
2018-08-28T14:57:56.767Z,35.17
2018-08-28T15:00:25.790Z,33.76
2018-08-28T15:02:54.922Z,33.14
2018-08-28T15:05:24.253Z,34.78
2018-08-28T15:07:53.822Z,33.30
2018-08-28T15:10:22.930Z,32.18
2018-08-28T15:12:52.547Z,32.85
2018-08-28T15:15:21.731Z,30.78
2018-08-28T15:17:50.902Z,32.24
2018-08-28T15:20:20.035Z,33.93
2018-08-28T15:22:49.159Z,33.67
2018-08-28T15:25:18.314Z,33.10
2018-08-28T15:27:47.458Z,31.05
2018-08-28T15:30:16.591Z,32.53
2018-08-28T15:32:45.770Z,33.26
2018-08-28T15:35:15.027Z,33.75
2018-08-28T15:37:44.390Z,34.94
2018-08-28T15:40:13.863Z,35.02
2018-08-28T15:42:43.019Z,33.99
2018-08-28T15:45:12.194Z,31.63
2018-08-28T15:47:41.574Z,32.48
2018-08-28T15:50:10.773Z,33.50
2018-08-28T15:52:39.902Z,33.33
2018-08-28T15:55:09.067Z,30.28
2018-08-28T15:57:38.250Z,30.85
2018-08-28T16:00:08.075Z,31.13
2018-08-28T16:02:37.274Z,30.48
2018-08-28T16:05:06.997Z,31.32
2018-08-28T16:07:36.297Z,31.19
2018-08-28T16:10:05.643Z,30.71
2018-08-28T16:12:34.828Z,30.26
2018-08-28T16:15:03.977Z,30.52
2018-08-28T16:17:33.118Z,29.60
2018-08-28T16:20:02.272Z,30.10
2018-08-28T16:22:35.702Z,30.36
2018-08-28T16:25:05.130Z,30.05
2018-08-28T16:27:34.264Z,30.11
2018-08-28T16:30:03.422Z,29.34
2018-08-28T16:32:32.647Z,28.58
2018-08-28T16:35:01.924Z,28.40
2018-08-28T16:37:31.118Z,28.19
2018-08-28T16:39:59.902Z,28.18
2018-08-28T16:42:29.087Z,27.32
2018-08-28T16:44:58.214Z,27.19
2018-08-28T16:47:27.534Z,26.91
2018-08-28T16:49:56.750Z,27.14
2018-08-28T16:52:25.822Z,26.85
2018-08-28T16:54:54.949Z,27.19
2018-08-28T16:57:24.109Z,26.98
2018-08-28T16:59:53.227Z,26.85
2018-08-28T17:02:22.721Z,27.10
2018-08-28T17:04:51.877Z,26.38
2018-08-28T17:07:21.077Z,26.19
2018-08-28T17:09:51.275Z,25.87
2018-08-28T17:12:21.081Z,25.38
2018-08-28T17:14:51.041Z,25.14
2018-08-28T17:17:20.128Z,24.84
2018-08-28T17:19:49.491Z,24.53
2018-08-28T17:22:19.006Z,24.34
2018-08-28T17:24:48.843Z,24.12
2018-08-28T17:27:17.921Z,24.04
2018-08-28T17:29:47.063Z,23.92
2018-08-28T17:32:16.258Z,23.75
2018-08-28T17:34:45.562Z,23.61
2018-08-28T17:37:15.110Z,23.46
2018-08-28T17:39:44.721Z,23.27
2018-08-28T17:42:13.839Z,23.14
2018-08-28T17:44:43.258Z,23.05
2018-08-28T17:47:12.503Z,22.88
2018-08-28T17:49:41.582Z,22.62
2018-08-28T17:52:11.043Z,22.49
2018-08-28T17:54:40.537Z,22.36
2018-08-28T17:57:09.967Z,22.38
2018-08-28T17:59:39.097Z,22.27
2018-08-28T18:02:08.974Z,22.05
2018-08-28T18:04:38.087Z,21.83
2018-08-28T18:07:07.198Z,21.61
2018-08-28T18:09:36.520Z,21.79
2018-08-28T18:12:05.621Z,21.66
2018-08-28T18:14:34.862Z,21.89
2018-08-28T18:17:04.509Z,22.09
2018-08-28T18:19:34.275Z,21.94
2018-08-28T18:22:03.439Z,21.69
2018-08-28T18:24:32.582Z,21.38
2018-08-28T18:27:01.693Z,21.16
2018-08-28T18:29:30.854Z,20.93
2018-08-28T18:32:00.015Z,20.72
2018-08-28T18:34:29.374Z,20.56
2018-08-28T18:36:58.486Z,20.39
2018-08-28T18:39:27.626Z,20.29
2018-08-28T18:41:57.274Z,20.29
2018-08-28T18:44:26.653Z,20.14
2018-08-28T18:46:56.313Z,20.03
2018-08-28T18:49:25.472Z,19.77
2018-08-28T18:51:54.862Z,19.72
2018-08-28T18:54:24.003Z,19.65
2018-08-28T18:56:53.134Z,19.70
2018-08-28T18:59:22.003Z,19.79
2018-08-28T19:01:51.122Z,19.61
2018-08-28T19:04:20.275Z,19.58
2018-08-28T19:06:49.430Z,19.52
2018-08-28T19:09:19.226Z,19.54
2018-08-28T19:11:48.286Z,19.37
2018-08-28T19:14:17.426Z,19.19
2018-08-28T19:16:46.558Z,19.20
2018-08-28T19:19:15.958Z,19.92
2018-08-28T19:21:45.153Z,19.84
2018-08-28T19:24:14.294Z,19.84
2018-08-28T19:26:43.478Z,20.20
2018-08-28T19:29:12.628Z,20.40
2018-08-28T19:31:41.817Z,20.35
2018-08-28T19:34:10.962Z,20.23
2018-08-28T19:36:40.110Z,20.27
2018-08-28T19:39:09.225Z,20.35
2018-08-28T19:41:38.359Z,20.21
2018-08-28T19:44:07.536Z,20.00
2018-08-28T19:46:36.674Z,19.82
2018-08-28T19:49:06.903Z,19.70
2018-08-28T19:51:36.030Z,19.53
2018-08-28T19:54:05.197Z,19.50
2018-08-28T19:56:34.350Z,19.30
2018-08-28T19:59:03.591Z,19.23
2018-08-28T20:01:32.982Z,19.26
2018-08-28T20:04:02.239Z,19.22
2018-08-28T20:06:31.300Z,19.10
2018-08-28T20:09:00.608Z,19.06
2018-08-28T20:11:29.903Z,19.03
2018-08-28T20:13:59.025Z,18.93
2018-08-28T20:16:28.163Z,18.82
2018-08-28T20:18:57.358Z,18.82
2018-08-28T20:21:26.757Z,18.77
2018-08-28T20:23:55.897Z,18.69
2018-08-28T20:26:25.019Z,18.58
2018-08-28T20:28:54.306Z,18.60
2018-08-28T20:31:23.483Z,18.40
2018-08-28T20:33:52.633Z,18.32
2018-08-28T20:36:21.739Z,18.30
2018-08-28T20:38:50.910Z,18.27
2018-08-28T20:41:20.034Z,18.18
2018-08-28T20:43:49.178Z,18.20
2018-08-28T20:46:18.390Z,18.05
2018-08-28T20:48:47.882Z,17.99
2018-08-28T20:51:17.063Z,17.94
2018-08-28T20:53:46.298Z,17.85
2018-08-28T20:56:16.090Z,17.71
2018-08-28T20:58:46.018Z,17.65
2018-08-28T21:01:15.908Z,17.77
2018-08-28T21:03:45.935Z,17.75
2018-08-28T21:06:15.821Z,17.60
2018-08-28T21:08:45.675Z,17.46
2018-08-28T21:11:14.369Z,17.48
2018-08-28T21:13:43.585Z,17.28
2018-08-28T21:16:12.713Z,17.30
2018-08-28T21:18:41.914Z,17.33
2018-08-28T21:21:11.122Z,17.22
2018-08-28T21:23:40.255Z,17.08
2018-08-28T21:26:09.423Z,17.00
2018-08-28T21:28:38.549Z,16.92
2018-08-28T21:31:07.658Z,16.85
2018-08-28T21:33:36.841Z,16.79
2018-08-28T21:36:05.948Z,16.82
2018-08-28T21:38:35.064Z,16.73
2018-08-28T21:41:04.239Z,16.56
2018-08-28T21:43:33.778Z,16.39
2018-08-28T21:46:02.924Z,16.27
2018-08-28T21:48:32.026Z,16.15
2018-08-28T21:51:01.155Z,15.96
2018-08-28T21:53:30.302Z,15.94
2018-08-28T21:55:59.422Z,15.98
2018-08-28T21:58:28.536Z,15.83
2018-08-28T22:01:02.990Z,15.82
2018-08-28T22:03:32.357Z,15.81
2018-08-28T22:06:02.099Z,15.77
2018-08-28T22:08:31.518Z,15.71
2018-08-28T22:11:01.899Z,15.61
2018-08-28T22:13:31.285Z,15.53
2018-08-28T22:16:00.537Z,15.51
2018-08-28T22:18:31.530Z,15.40
2018-08-28T22:21:00.617Z,15.36
2018-08-28T22:23:29.721Z,15.48
2018-08-28T22:25:58.834Z,15.56
2018-08-28T22:28:27.930Z,15.53
2018-08-28T22:30:57.007Z,15.40
2018-08-28T22:33:26.306Z,15.32
2018-08-28T22:35:55.374Z,15.40
2018-08-28T22:38:24.478Z,15.35
2018-08-28T22:40:53.582Z,15.19
2018-08-28T22:43:23.770Z,15.24
2018-08-28T22:45:53.052Z,15.26
2018-08-28T22:48:22.142Z,15.21
2018-08-28T22:50:51.242Z,15.27
2018-08-28T22:53:20.369Z,15.16
2018-08-28T22:55:49.494Z,15.06
2018-08-28T22:58:18.894Z,15.09
2018-08-28T23:00:48.042Z,14.97
2018-08-28T23:03:17.120Z,14.99
2018-08-28T23:05:46.537Z,15.06
2018-08-28T23:08:15.638Z,15.04
2018-08-28T23:10:45.250Z,15.08
2018-08-28T23:13:14.347Z,15.03
2018-08-28T23:15:43.430Z,15.13
2018-08-28T23:18:12.538Z,15.17
2018-08-28T23:20:41.637Z,15.15
2018-08-28T23:23:10.762Z,15.11
2018-08-28T23:25:39.856Z,15.13
2018-08-28T23:28:08.942Z,15.10
2018-08-28T23:30:38.106Z,15.23
2018-08-28T23:33:07.206Z,15.28
2018-08-28T23:35:36.307Z,15.25
2018-08-28T23:38:05.497Z,15.26
2018-08-28T23:40:35.147Z,15.27
2018-08-28T23:43:04.278Z,15.24
2018-08-28T23:45:33.385Z,15.22
2018-08-28T23:48:02.474Z,15.23
2018-08-28T23:50:31.608Z,15.25
2018-08-28T23:53:00.694Z,15.19
2018-08-28T23:55:29.790Z,15.13
2018-08-28T23:57:59.718Z,15.12
